首页
METAR-TAF:

METAR-TAF

机场 :

基西米, 佛罗里达州, 美国

纬度: 28-17-23N, 经度: 081-26-14W, 海拔: 25米

当前天气观测

该预报发布于27分钟前的16:56 UTC
风速16节,风向西转西北,有时为20节阵风
温度 24°C
湿度 61%
气压 1013 hPa
能見度: 16.1公里
散云层高于2600英尺
散云层高于3100英尺

METAR: KISM 031656Z 30016G20KT 10SM SCT026 SCT031 24/16 A2992 RMK AO2 SLP134 T02390161 $

时间: 12:23 (17:23 UTC)

预报

该预报发布于5小时和54分钟前的11:29 UTC
预报有效从03日的 12点(UTC)到 04日的 12点(UTC)
风速8节,风向南转西南
能見度: 10公里
多云层高于800英尺, 积雨云.
附近有雷暴
短暂存在
从 03日的 12点(UTC)到 03日的 14点(UTC)
能見度: 4.8公里
雷暴, 雨
从 03日的 1400点(UTC)
风速12节,风向西转西南
能見度: 10公里
散云层高于800英尺
多云层高于3000英尺
多云层高于10000英尺
从 03日的 1500点(UTC)
风速12节,风向西转西北
能見度: 10公里
散云层高于3000英尺
多云层高于12000英尺
从 03日的 1800点(UTC)
风速10节,风向北转西北
能見度: 10公里
散云层高于3500英尺
多云层高于25000英尺
从 04日的 0000点(UTC)
风速5节,风向
能見度: 10公里
散云层高于25000英尺

TAF: KISM 031129Z 0312/0412 20008KT P6SM VCTS BKN008CB TEMPO 0312/0314 3SM TSRA FM031400 25012KT P6SM SCT008 BKN030 BKN100 FM031500 30012KT P6SM SCT030 BKN120 FM031800 33010KT P6SM SCT035 BKN250 FM040000 36005KT P6SM SCT250

超过4000个机场的气象观测和天气预报(METAR&TAF报告)。

可查询的气象台以黄色和红色小点在地图上表示。

将鼠标移到小点上方,可查看气象台名称。

然后点击查看天气观测和预报。

如需切换地图:点击带黑十字的绿色按钮放大地图;点击带横线的绿色按钮缩小地图;或者点击绿色箭头查看邻近地区的地图。


METAR-TAF: